createdAt,value
2017-11-29T00:00:10.490Z,0
2017-11-29T00:01:20.515Z,0
2017-11-29T00:02:30.545Z,0
2017-11-29T00:03:40.284Z,0
2017-11-29T00:04:50.050Z,0
2017-11-29T00:06:00.076Z,0
2017-11-29T00:07:10.092Z,0
2017-11-29T00:08:20.096Z,0
2017-11-29T00:09:30.105Z,0
2017-11-29T00:10:40.146Z,0
2017-11-29T00:11:50.159Z,0
2017-11-29T00:13:00.162Z,0
2017-11-29T00:14:10.170Z,0
2017-11-29T00:15:20.175Z,0
2017-11-29T00:16:30.183Z,0
2017-11-29T00:17:40.196Z,0
2017-11-29T00:18:49.659Z,0
2017-11-29T00:19:59.683Z,0
2017-11-29T00:21:09.417Z,0
2017-11-29T00:22:19.166Z,0
2017-11-29T00:23:29.173Z,0
2017-11-29T00:24:39.193Z,0
2017-11-29T00:25:49.198Z,0
2017-11-29T00:26:58.952Z,0
2017-11-29T00:28:08.960Z,0
2017-11-29T00:29:18.460Z,0
2017-11-29T00:30:28.474Z,0
2017-11-29T00:31:38.473Z,0
2017-11-29T00:32:48.484Z,0
2017-11-29T00:33:58.217Z,0
2017-11-29T00:35:07.954Z,0
2017-11-29T00:36:18.019Z,0
2017-11-29T00:37:28.030Z,0
2017-11-29T00:38:37.768Z,0
2017-11-29T00:39:47.502Z,0
2017-11-29T00:40:57.516Z,0
2017-11-29T00:42:07.521Z,0
2017-11-29T00:43:17.539Z,0
2017-11-29T00:44:27.547Z,0
2017-11-29T00:45:37.551Z,0
2017-11-29T00:46:47.293Z,0
2017-11-29T00:47:57.336Z,0
2017-11-29T00:49:07.032Z,0
2017-11-29T00:50:16.769Z,0
2017-11-29T00:51:26.506Z,0
2017-11-29T00:52:36.512Z,0
2017-11-29T00:53:46.514Z,0
2017-11-29T00:54:56.533Z,0
2017-11-29T00:56:06.274Z,0
2017-11-29T00:57:16.280Z,0
2017-11-29T00:58:26.285Z,0
2017-11-29T00:59:36.295Z,0
2017-11-29T01:00:46.310Z,0
2017-11-29T01:01:56.070Z,0
2017-11-29T01:03:06.074Z,0
2017-11-29T01:04:16.082Z,0
2017-11-29T01:05:25.826Z,0
2017-11-29T01:06:35.829Z,0
2017-11-29T01:07:45.873Z,0
2017-11-29T01:08:55.885Z,0
2017-11-29T01:10:05.627Z,0
2017-11-29T01:11:15.396Z,0
2017-11-29T01:12:25.417Z,0
2017-11-29T01:13:35.422Z,0
2017-11-29T01:14:45.431Z,0
2017-11-29T01:15:55.162Z,0
2017-11-29T01:17:05.181Z,0
2017-11-29T01:18:15.190Z,0
2017-11-29T01:19:25.196Z,0
2017-11-29T01:20:35.202Z,0
2017-11-29T01:21:45.208Z,0
2017-11-29T01:22:54.948Z,0
2017-11-29T01:24:04.953Z,0
2017-11-29T01:25:14.689Z,0
2017-11-29T01:26:24.702Z,0
2017-11-29T01:27:34.705Z,0
2017-11-29T01:28:44.756Z,0
2017-11-29T01:29:54.491Z,0
2017-11-29T01:31:04.497Z,0
2017-11-29T01:32:14.253Z,0
2017-11-29T01:33:24.260Z,0
2017-11-29T01:34:33.993Z,0
2017-11-29T01:35:44.001Z,0
2017-11-29T01:36:53.464Z,0
2017-11-29T01:38:03.199Z,0
2017-11-29T01:39:12.942Z,0
2017-11-29T01:40:22.944Z,0
2017-11-29T01:41:32.957Z,0
2017-11-29T01:42:42.964Z,0
2017-11-29T01:43:52.975Z,0
2017-11-29T01:45:02.985Z,0
2017-11-29T01:46:12.717Z,0
2017-11-29T01:47:22.193Z,0
2017-11-29T01:48:32.201Z,0
2017-11-29T01:49:41.933Z,0
2017-11-29T01:50:51.959Z,0
2017-11-29T01:52:01.463Z,0
2017-11-29T01:53:11.469Z,0
2017-11-29T01:54:21.480Z,0
2017-11-29T01:55:31.485Z,0
2017-11-29T01:56:41.491Z,0
2017-11-29T01:57:51.491Z,0
2017-11-29T01:59:01.498Z,0
2017-11-29T02:00:11.510Z,0
2017-11-29T02:01:21.246Z,0
2017-11-29T02:02:31.255Z,0
2017-11-29T02:03:41.272Z,0
2017-11-29T02:04:51.275Z,0
2017-11-29T02:06:01.009Z,0
2017-11-29T02:07:10.754Z,0
2017-11-29T02:08:20.759Z,0
2017-11-29T02:09:30.778Z,0
2017-11-29T02:10:40.241Z,0
2017-11-29T02:11:50.250Z,0
2017-11-29T02:13:00.260Z,0
2017-11-29T02:14:10.272Z,0
2017-11-29T02:15:20.003Z,0
2017-11-29T02:16:30.011Z,0
2017-11-29T02:17:39.477Z,0
2017-11-29T02:18:49.495Z,0
2017-11-29T02:19:59.239Z,0
2017-11-29T02:21:09.249Z,0
2017-11-29T02:22:18.994Z,0
2017-11-29T02:23:29.004Z,0
2017-11-29T02:24:39.007Z,0
2017-11-29T02:25:49.009Z,0
2017-11-29T02:26:58.478Z,0
2017-11-29T02:28:08.483Z,0
2017-11-29T02:29:18.488Z,0
2017-11-29T02:30:28.526Z,0
2017-11-29T02:31:38.537Z,0
2017-11-29T02:32:48.558Z,0
2017-11-29T02:33:58.567Z,0
2017-11-29T02:35:08.581Z,0
2017-11-29T02:36:18.590Z,0
2017-11-29T02:37:28.617Z,0
2017-11-29T02:38:38.364Z,0
2017-11-29T02:39:48.115Z,0
2017-11-29T02:40:58.157Z,0
2017-11-29T02:42:07.896Z,0
2017-11-29T02:43:17.670Z,0
2017-11-29T02:44:27.694Z,0
2017-11-29T02:45:37.705Z,0
2017-11-29T02:46:47.191Z,0
2017-11-29T02:47:56.943Z,0
2017-11-29T02:49:06.950Z,0
2017-11-29T02:50:16.971Z,0
2017-11-29T02:51:26.977Z,0
2017-11-29T02:52:36.733Z,0
2017-11-29T02:53:46.743Z,0
2017-11-29T02:54:56.477Z,0
2017-11-29T02:56:06.505Z,0
2017-11-29T02:57:16.504Z,0
2017-11-29T02:58:26.512Z,0
2017-11-29T02:59:36.516Z,0
2017-11-29T03:00:45.710Z,0
2017-11-29T03:01:55.442Z,0
2017-11-29T03:03:05.445Z,0
2017-11-29T03:04:15.443Z,0
2017-11-29T03:05:25.446Z,0
2017-11-29T03:06:35.455Z,0
2017-11-29T03:07:45.195Z,0
2017-11-29T03:08:54.931Z,0
2017-11-29T03:10:04.940Z,0
2017-11-29T03:11:14.682Z,0
2017-11-29T03:12:24.708Z,0
2017-11-29T03:13:34.724Z,0
2017-11-29T03:14:44.732Z,0
2017-11-29T03:15:54.750Z,0
2017-11-29T03:17:04.769Z,0
2017-11-29T03:18:14.772Z,0
2017-11-29T03:19:24.772Z,0
2017-11-29T03:20:34.800Z,0
2017-11-29T03:21:44.833Z,0
2017-11-29T03:22:54.561Z,0
2017-11-29T03:24:04.579Z,0
2017-11-29T03:25:14.599Z,0
2017-11-29T03:26:24.627Z,0
2017-11-29T03:27:34.380Z,0
2017-11-29T03:28:44.696Z,0
2017-11-29T03:29:54.430Z,0
2017-11-29T03:31:04.501Z,0
2017-11-29T03:32:14.235Z,0
2017-11-29T03:33:24.254Z,0
2017-11-29T03:34:34.263Z,0
2017-11-29T03:35:44.278Z,0
2017-11-29T03:36:54.278Z,0
2017-11-29T03:38:04.283Z,0
2017-11-29T03:39:14.285Z,0
2017-11-29T03:40:24.294Z,0
2017-11-29T03:41:34.309Z,0
2017-11-29T03:42:44.051Z,0
2017-11-29T03:43:54.061Z,0
2017-11-29T03:45:04.067Z,0
2017-11-29T03:46:13.809Z,0
2017-11-29T03:47:23.822Z,0
2017-11-29T03:48:33.832Z,0
2017-11-29T03:49:43.584Z,0
2017-11-29T03:50:53.604Z,0
2017-11-29T03:52:03.603Z,0
2017-11-29T03:53:13.621Z,0
2017-11-29T03:54:23.632Z,0
2017-11-29T03:55:33.643Z,0
2017-11-29T03:56:43.653Z,0
2017-11-29T03:57:53.654Z,0
2017-11-29T03:59:03.388Z,0
2017-11-29T04:00:13.393Z,0
2017-11-29T04:04:10.271Z,0
2017-11-29T04:05:20.283Z,0
2017-11-29T04:06:30.285Z,0
2017-11-29T04:07:40.026Z,0
2017-11-29T04:08:50.037Z,0
2017-11-29T04:10:01.800Z,0
2017-11-29T04:11:11.813Z,0
2017-11-29T04:12:21.557Z,0
2017-11-29T04:13:31.566Z,0
2017-11-29T04:14:41.564Z,0
2017-11-29T04:15:51.324Z,0
2017-11-29T04:17:01.344Z,0
2017-11-29T04:18:11.352Z,0
2017-11-29T04:19:21.097Z,0
2017-11-29T04:20:30.849Z,0
2017-11-29T04:21:40.852Z,0
2017-11-29T04:22:50.857Z,0
2017-11-29T04:24:00.870Z,0
2017-11-29T04:25:10.607Z,0
2017-11-29T04:26:20.616Z,0
2017-11-29T04:27:30.346Z,0
2017-11-29T04:28:40.351Z,0
2017-11-29T04:29:50.355Z,0
2017-11-29T04:30:59.816Z,0
2017-11-29T04:32:09.827Z,0
2017-11-29T04:33:19.562Z,0
2017-11-29T04:34:29.568Z,0
2017-11-29T04:35:39.598Z,0
2017-11-29T04:36:49.338Z,0
2017-11-29T04:37:59.344Z,0
2017-11-29T04:39:11.348Z,0
2017-11-29T04:40:21.359Z,0
2017-11-29T04:41:31.402Z,0
2017-11-29T04:42:41.426Z,0
2017-11-29T04:43:51.170Z,0
2017-11-29T04:45:01.221Z,0
2017-11-29T04:46:10.962Z,0
2017-11-29T04:47:20.706Z,0
2017-11-29T04:48:30.710Z,0
2017-11-29T04:49:40.712Z,0
2017-11-29T04:50:50.734Z,0
2017-11-29T04:52:00.747Z,0
2017-11-29T04:53:10.763Z,0
2017-11-29T04:54:20.794Z,0
2017-11-29T04:55:30.800Z,0
2017-11-29T04:56:40.814Z,0
2017-11-29T04:57:50.566Z,0
2017-11-29T04:59:00.581Z,0
2017-11-29T05:00:10.311Z,0
2017-11-29T05:01:20.043Z,0
2017-11-29T05:02:30.053Z,0
2017-11-29T05:03:40.056Z,0
2017-11-29T05:04:50.061Z,0
2017-11-29T05:06:00.072Z,0
2017-11-29T05:07:10.080Z,0
2017-11-29T05:08:20.086Z,0
2017-11-29T05:09:30.086Z,0
2017-11-29T05:10:40.094Z,0
2017-11-29T05:11:50.095Z,0
2017-11-29T05:13:00.097Z,0
2017-11-29T05:14:10.104Z,0
2017-11-29T05:15:20.101Z,0
2017-11-29T05:16:29.843Z,0
2017-11-29T05:17:39.849Z,0
2017-11-29T05:18:49.855Z,0
2017-11-29T05:19:59.857Z,0
2017-11-29T05:21:09.865Z,0
2017-11-29T05:22:19.869Z,0
2017-11-29T05:23:29.872Z,0
2017-11-29T05:24:39.610Z,0
2017-11-29T05:25:49.620Z,0
2017-11-29T05:26:59.626Z,0
2017-11-29T05:28:09.657Z,0
2017-11-29T05:29:19.392Z,0
2017-11-29T05:30:29.396Z,0
2017-11-29T05:31:39.403Z,0
2017-11-29T05:32:49.139Z,0
2017-11-29T05:33:59.157Z,0
2017-11-29T05:35:08.900Z,0
2017-11-29T05:36:18.902Z,0
2017-11-29T05:37:28.905Z,0
2017-11-29T05:38:38.922Z,0
2017-11-29T05:39:48.924Z,0
2017-11-29T05:40:58.945Z,0
2017-11-29T05:42:08.955Z,0
2017-11-29T05:43:18.968Z,0
2017-11-29T05:44:28.699Z,0
2017-11-29T05:45:38.712Z,0
2017-11-29T05:46:48.715Z,0
2017-11-29T05:47:58.753Z,0
2017-11-29T05:49:08.507Z,0
2017-11-29T05:50:18.549Z,0
2017-11-29T05:51:28.570Z,0
2017-11-29T05:52:38.575Z,0
2017-11-29T05:53:48.306Z,0
2017-11-29T05:54:58.326Z,0
2017-11-29T05:56:08.354Z,0
2017-11-29T05:57:18.104Z,0
2017-11-29T05:58:28.111Z,0
2017-11-29T05:59:38.120Z,0
2017-11-29T06:00:48.151Z,0
2017-11-29T06:01:57.901Z,0
2017-11-29T06:03:07.912Z,0
2017-11-29T06:04:17.912Z,0
2017-11-29T06:05:27.661Z,0
2017-11-29T06:06:37.667Z,0
2017-11-29T06:07:47.673Z,0
2017-11-29T06:08:57.678Z,0
2017-11-29T06:10:07.419Z,0
2017-11-29T06:11:17.443Z,0
2017-11-29T06:12:27.183Z,0
2017-11-29T06:13:37.188Z,0
2017-11-29T06:14:46.917Z,0
2017-11-29T06:15:56.936Z,0
2017-11-29T06:17:06.677Z,0
2017-11-29T06:18:16.425Z,0
2017-11-29T06:19:26.422Z,0
2017-11-29T06:20:36.191Z,0
2017-11-29T06:21:46.215Z,0
2017-11-29T06:22:56.218Z,0
2017-11-29T06:24:05.964Z,0
2017-11-29T06:25:15.970Z,0
2017-11-29T06:26:25.973Z,0
2017-11-29T06:27:35.983Z,0
2017-11-29T06:28:45.991Z,0
2017-11-29T06:29:56.024Z,0
2017-11-29T06:31:06.035Z,0
2017-11-29T06:32:15.815Z,0
2017-11-29T06:33:25.837Z,0
2017-11-29T06:34:35.863Z,0
2017-11-29T06:35:45.870Z,0
2017-11-29T06:36:55.605Z,0
2017-11-29T06:38:05.617Z,0
2017-11-29T06:39:15.621Z,0
2017-11-29T06:40:25.633Z,0
2017-11-29T06:41:35.663Z,0
2017-11-29T06:42:45.674Z,0
2017-11-29T06:43:55.690Z,0
2017-11-29T06:45:05.705Z,0
2017-11-29T06:46:15.710Z,0
2017-11-29T06:47:25.733Z,0
2017-11-29T06:48:35.750Z,0
2017-11-29T06:49:45.796Z,0
2017-11-29T06:50:55.806Z,0
2017-11-29T06:52:05.803Z,0
2017-11-29T06:53:15.815Z,0
2017-11-29T06:54:25.821Z,0
2017-11-29T06:55:35.828Z,0
2017-11-29T06:56:45.836Z,0
2017-11-29T06:57:55.850Z,0
2017-11-29T06:59:05.863Z,0
2017-11-29T07:00:15.631Z,0
2017-11-29T07:01:25.634Z,0
2017-11-29T07:02:35.637Z,0
2017-11-29T07:03:45.373Z,4
2017-11-29T07:04:55.102Z,4
2017-11-29T07:06:05.125Z,4
2017-11-29T07:07:15.129Z,0
2017-11-29T07:08:25.181Z,4
2017-11-29T07:09:34.929Z,4
2017-11-29T07:10:44.949Z,4
2017-11-29T07:11:54.952Z,4
2017-11-29T07:13:04.970Z,8
2017-11-29T07:14:14.973Z,8
2017-11-29T07:15:24.714Z,4
2017-11-29T07:16:35.372Z,8
2017-11-29T07:17:45.419Z,8
2017-11-29T07:18:55.423Z,8
2017-11-29T07:20:05.172Z,12
2017-11-29T07:21:14.677Z,12
2017-11-29T07:22:24.686Z,16
2017-11-29T07:23:34.692Z,20
2017-11-29T07:24:44.424Z,24
2017-11-29T07:25:54.420Z,20
2017-11-29T07:27:04.172Z,28
2017-11-29T07:28:14.205Z,32
2017-11-29T07:29:24.222Z,32
2017-11-29T07:30:34.238Z,36
2017-11-29T07:31:43.997Z,40
2017-11-29T07:32:53.738Z,44
2017-11-29T07:34:03.748Z,44
2017-11-29T07:35:13.750Z,52
2017-11-29T07:36:23.751Z,56
2017-11-29T07:37:33.499Z,60
2017-11-29T07:38:43.516Z,64
2017-11-29T07:39:53.552Z,68
2017-11-29T07:41:03.567Z,76
2017-11-29T07:42:13.576Z,84
2017-11-29T07:43:23.316Z,88
2017-11-29T07:44:33.316Z,92
2017-11-29T07:45:43.329Z,100
2017-11-29T07:46:53.334Z,104
2017-11-29T07:48:02.805Z,112
2017-11-29T07:49:12.813Z,120
2017-11-29T07:50:22.817Z,128
2017-11-29T07:51:33.087Z,136
2017-11-29T07:52:43.096Z,144
2017-11-29T07:53:52.932Z,156
2017-11-29T07:55:02.949Z,168
2017-11-29T07:56:12.690Z,172
2017-11-29T07:57:22.708Z,180
2017-11-29T07:58:32.718Z,192
2017-11-29T07:59:42.722Z,200
2017-11-29T08:00:52.730Z,208
2017-11-29T08:02:02.751Z,220
2017-11-29T08:03:12.785Z,232
2017-11-29T08:04:22.804Z,240
2017-11-29T08:05:32.804Z,252
2017-11-29T08:06:42.811Z,264
2017-11-29T08:07:52.815Z,276
2017-11-29T08:09:02.545Z,288
2017-11-29T08:10:12.311Z,292
2017-11-29T08:11:22.318Z,296
2017-11-29T08:12:32.093Z,304
2017-11-29T08:13:41.787Z,300
2017-11-29T08:14:51.246Z,304
2017-11-29T08:16:01.253Z,312
2017-11-29T08:17:11.266Z,312
2017-11-29T08:18:21.012Z,312
2017-11-29T08:19:30.779Z,316
2017-11-29T08:20:40.789Z,324
2017-11-29T08:21:50.808Z,328
2017-11-29T08:23:00.811Z,336
2017-11-29T08:24:10.841Z,344
2017-11-29T08:25:20.871Z,352
2017-11-29T08:26:30.891Z,360
2017-11-29T08:27:40.908Z,364
2017-11-29T08:28:50.909Z,368
2017-11-29T08:30:00.650Z,376
2017-11-29T08:31:10.664Z,384
2017-11-29T08:32:21.682Z,396
2017-11-29T08:33:31.686Z,408
2017-11-29T08:34:41.686Z,420
2017-11-29T08:35:51.427Z,428
2017-11-29T08:37:01.468Z,432
2017-11-29T08:38:11.203Z,440
2017-11-29T08:39:21.206Z,456
2017-11-29T08:40:30.941Z,472
2017-11-29T08:41:40.971Z,480
2017-11-29T08:42:51.000Z,492
2017-11-29T08:44:01.002Z,504
2017-11-29T08:45:10.822Z,508
2017-11-29T08:46:20.570Z,516
2017-11-29T08:47:30.033Z,528
2017-11-29T08:48:40.034Z,536
2017-11-29T08:49:50.365Z,544
2017-11-29T08:51:00.375Z,548
2017-11-29T08:52:10.462Z,560
2017-11-29T08:53:20.463Z,576
2017-11-29T08:54:30.200Z,588
2017-11-29T08:55:40.526Z,608
2017-11-29T08:56:50.545Z,624
2017-11-29T08:58:00.550Z,640
2017-11-29T08:59:10.584Z,656
2017-11-29T09:00:20.589Z,676
2017-11-29T09:01:32.599Z,692
2017-11-29T09:02:42.609Z,704
2017-11-29T09:03:52.617Z,720
2017-11-29T09:05:02.352Z,744
2017-11-29T09:06:12.392Z,764
2017-11-29T09:07:22.983Z,788
2017-11-29T09:08:33.003Z,804
2017-11-29T09:09:42.797Z,824
2017-11-29T09:10:52.829Z,840
2017-11-29T09:12:02.312Z,864
2017-11-29T09:13:16.332Z,884
2017-11-29T09:14:26.344Z,912
2017-11-29T09:15:36.363Z,932
2017-11-29T09:16:46.369Z,956
2017-11-29T09:17:56.370Z,984
2017-11-29T09:19:06.368Z,1016
2017-11-29T09:20:16.393Z,1044
2017-11-29T09:21:26.420Z,1080
2017-11-29T09:22:36.438Z,1104
2017-11-29T09:23:46.455Z,1140
2017-11-29T09:24:56.197Z,1172
2017-11-29T09:26:06.236Z,1204
2017-11-29T09:27:16.255Z,1232
2017-11-29T09:28:26.271Z,1252
2017-11-29T09:29:36.270Z,1264
2017-11-29T09:30:46.831Z,1300
2017-11-29T09:31:56.563Z,1324
2017-11-29T09:33:06.294Z,1348
2017-11-29T09:34:16.309Z,1364
2017-11-29T09:35:26.312Z,1388
2017-11-29T09:36:36.055Z,1416
2017-11-29T09:37:46.066Z,1428
2017-11-29T09:38:56.069Z,1440
2017-11-29T09:40:05.806Z,1456
2017-11-29T09:41:15.806Z,1480
2017-11-29T09:42:25.819Z,1500
2017-11-29T09:43:35.830Z,1500
2017-11-29T09:44:45.304Z,1488
2017-11-29T09:45:55.320Z,1484
2017-11-29T09:47:05.324Z,1488
2017-11-29T09:48:15.057Z,1484
2017-11-29T09:49:24.793Z,1496
2017-11-29T09:50:34.812Z,1508
2017-11-29T09:51:44.830Z,1524
2017-11-29T09:52:54.576Z,1536
2017-11-29T09:54:04.314Z,1540
2017-11-29T09:55:14.050Z,1552
2017-11-29T09:56:24.076Z,1560
2017-11-29T09:57:33.825Z,1576
2017-11-29T09:58:43.847Z,1580
2017-11-29T09:59:53.916Z,1572
2017-11-29T10:01:03.939Z,1588
2017-11-29T10:02:13.941Z,1604
2017-11-29T10:03:23.942Z,1628
2017-11-29T10:04:33.974Z,1652
2017-11-29T10:05:43.703Z,1676
2017-11-29T10:06:53.443Z,1696
2017-11-29T10:08:02.910Z,1728
2017-11-29T10:09:12.650Z,1768
2017-11-29T10:10:22.653Z,1800
2017-11-29T10:11:32.707Z,1836
2017-11-29T10:12:42.718Z,1880
2017-11-29T10:13:52.447Z,1920
2017-11-29T10:15:02.460Z,1944
2017-11-29T10:16:12.197Z,1980
2017-11-29T10:17:22.205Z,2016
2017-11-29T10:18:32.212Z,2056
2017-11-29T10:19:42.214Z,2092
2017-11-29T10:20:51.954Z,2124
2017-11-29T10:22:01.689Z,2148
2017-11-29T10:23:11.438Z,2168
2017-11-29T10:24:20.898Z,2184
2017-11-29T10:25:30.924Z,2216
2017-11-29T10:26:40.926Z,2236
2017-11-29T10:27:50.956Z,2248
2017-11-29T10:29:00.979Z,2276
2017-11-29T10:30:10.441Z,2308
2017-11-29T10:31:20.182Z,2340
2017-11-29T10:32:29.936Z,2372
2017-11-29T10:33:39.959Z,2408
2017-11-29T10:34:49.985Z,2448
2017-11-29T10:36:00.007Z,2512
2017-11-29T10:37:10.056Z,2564
2017-11-29T10:38:19.788Z,2588
2017-11-29T10:39:29.789Z,2600
2017-11-29T10:40:39.797Z,2616
2017-11-29T10:41:49.813Z,2632
2017-11-29T10:42:59.823Z,2668
2017-11-29T10:44:09.823Z,2684
2017-11-29T10:45:19.828Z,2684
2017-11-29T10:46:29.842Z,2676
2017-11-29T10:47:39.849Z,2660
2017-11-29T10:48:49.864Z,2660
2017-11-29T10:49:59.869Z,2676
2017-11-29T10:51:09.878Z,2700
2017-11-29T10:52:19.628Z,2724
2017-11-29T10:53:29.626Z,2764
2017-11-29T10:54:39.637Z,2792
2017-11-29T10:55:49.367Z,2808
2017-11-29T10:56:59.370Z,2808
2017-11-29T10:58:09.314Z,2800
2017-11-29T10:59:19.064Z,2816
2017-11-29T11:00:29.066Z,2840
2017-11-29T11:01:39.069Z,2872
2017-11-29T11:02:49.072Z,2916
2017-11-29T11:03:59.093Z,2960
2017-11-29T11:05:08.832Z,2988
2017-11-29T11:06:18.567Z,3008
2017-11-29T11:07:28.571Z,3032
2017-11-29T11:08:38.576Z,3064
2017-11-29T11:09:48.595Z,3116
2017-11-29T11:10:58.336Z,3136
2017-11-29T11:12:08.069Z,3148
2017-11-29T11:13:17.807Z,3156
2017-11-29T11:14:27.541Z,3164
2017-11-29T11:15:37.552Z,3180
2017-11-29T11:16:47.561Z,3196
2017-11-29T11:17:57.565Z,3228
2017-11-29T11:19:07.577Z,3268
2017-11-29T11:20:17.590Z,3268
2017-11-29T11:21:27.328Z,3288
2017-11-29T11:22:37.067Z,3328
2017-11-29T11:23:46.806Z,3356
2017-11-29T11:24:56.814Z,3352
2017-11-29T11:26:06.548Z,3348
2017-11-29T11:27:16.327Z,3336
2017-11-29T11:28:26.352Z,3320
2017-11-29T11:29:36.353Z,3308
2017-11-29T11:30:46.367Z,3292
2017-11-29T11:31:56.385Z,3284
2017-11-29T11:33:06.129Z,3288
2017-11-29T11:34:15.892Z,3280
2017-11-29T11:35:25.366Z,3260
2017-11-29T11:36:35.109Z,3240
2017-11-29T11:37:45.125Z,3232
2017-11-29T11:38:55.511Z,3244
2017-11-29T11:40:05.244Z,3264
2017-11-29T11:41:14.989Z,3272
2017-11-29T11:42:25.009Z,3324
2017-11-29T11:43:34.750Z,3388
2017-11-29T11:44:44.759Z,3440
2017-11-29T11:45:54.757Z,3468
2017-11-29T11:47:04.533Z,3488
2017-11-29T11:48:14.544Z,3508
2017-11-29T11:49:24.290Z,3548
2017-11-29T11:50:34.301Z,3560
2017-11-29T11:51:44.034Z,3540
2017-11-29T11:52:54.035Z,3544
2017-11-29T11:54:03.805Z,3572
2017-11-29T11:55:13.829Z,3572
2017-11-29T11:56:23.860Z,3556
2017-11-29T11:57:33.597Z,3540
2017-11-29T11:58:43.601Z,3524
2017-11-29T11:59:53.383Z,3520
2017-11-29T12:01:03.388Z,3524
2017-11-29T12:02:13.130Z,3536
2017-11-29T12:03:23.132Z,3572
2017-11-29T12:04:32.876Z,3624
2017-11-29T12:05:42.884Z,3644
2017-11-29T12:06:52.352Z,3688
2017-11-29T12:08:02.395Z,3732
2017-11-29T12:09:12.414Z,3748
2017-11-29T12:10:22.416Z,3748
2017-11-29T12:11:32.435Z,3720
2017-11-29T12:12:42.453Z,3720
2017-11-29T12:13:52.466Z,3648
2017-11-29T12:15:02.469Z,3612
2017-11-29T12:16:12.482Z,3612
2017-11-29T12:17:22.489Z,3572
2017-11-29T12:18:32.507Z,3504
2017-11-29T12:19:42.522Z,3444
2017-11-29T12:20:52.525Z,3364
2017-11-29T12:22:02.550Z,3244
2017-11-29T12:23:12.555Z,3132
2017-11-29T12:24:22.565Z,3024
2017-11-29T12:25:32.599Z,2968
2017-11-29T12:26:42.368Z,2848
2017-11-29T12:27:52.376Z,2744
2017-11-29T12:29:02.399Z,2680
2017-11-29T12:30:11.858Z,2620
2017-11-29T12:31:21.862Z,2540
2017-11-29T12:32:31.871Z,2460
2017-11-29T12:33:41.343Z,2384
2017-11-29T12:34:51.357Z,2328
2017-11-29T12:36:01.096Z,2268
2017-11-29T12:37:10.830Z,2208
2017-11-29T12:38:20.847Z,2156
2017-11-29T12:39:30.861Z,2124
2017-11-29T12:40:40.591Z,2076
2017-11-29T12:41:50.332Z,2032
2017-11-29T12:43:00.360Z,1992
2017-11-29T12:44:10.371Z,1956
2017-11-29T12:45:20.115Z,1904
2017-11-29T12:46:30.123Z,1844
2017-11-29T12:47:40.126Z,1784
2017-11-29T12:48:50.133Z,1752
2017-11-29T12:50:00.141Z,1720
2017-11-29T12:51:10.157Z,1692
2017-11-29T12:52:20.173Z,1648
2017-11-29T12:53:30.178Z,1608
2017-11-29T12:54:40.183Z,1580
2017-11-29T12:55:49.931Z,1548
2017-11-29T12:56:59.668Z,1508
2017-11-29T12:58:09.418Z,1488
2017-11-29T12:59:19.432Z,1468
2017-11-29T13:00:29.167Z,1444
2017-11-29T13:01:38.926Z,1416
2017-11-29T13:02:48.922Z,1392
2017-11-29T13:03:58.927Z,1364
2017-11-29T13:05:08.929Z,1340
2017-11-29T13:06:18.935Z,1296
2017-11-29T13:07:28.682Z,1260
2017-11-29T13:08:38.687Z,1232
2017-11-29T13:09:48.421Z,1196
2017-11-29T13:10:58.157Z,1176
2017-11-29T13:12:08.157Z,1148
2017-11-29T13:13:18.167Z,1128
2017-11-29T13:14:28.166Z,1116
2017-11-29T13:15:37.907Z,1104
2017-11-29T13:16:47.925Z,1096
2017-11-29T13:17:57.671Z,1108
2017-11-29T13:19:07.694Z,1100
2017-11-29T13:20:17.438Z,1108
2017-11-29T13:21:27.472Z,1124
2017-11-29T13:22:37.479Z,1140
2017-11-29T13:23:47.806Z,1148
2017-11-29T13:24:57.817Z,1148
2017-11-29T13:26:07.823Z,1152
2017-11-29T13:27:17.830Z,1156
2017-11-29T13:28:27.848Z,1128
2017-11-29T13:29:37.860Z,1088
2017-11-29T13:30:47.865Z,1036
2017-11-29T13:31:57.602Z,980
2017-11-29T13:33:07.606Z,940
2017-11-29T13:34:16.800Z,896
2017-11-29T13:35:26.552Z,840
2017-11-29T13:36:36.570Z,800
2017-11-29T13:37:46.333Z,760
2017-11-29T13:38:56.335Z,724
2017-11-29T13:40:06.078Z,692
2017-11-29T13:41:16.090Z,660
2017-11-29T13:42:26.107Z,640
2017-11-29T13:43:35.839Z,620
2017-11-29T13:44:45.596Z,604
2017-11-29T13:45:55.612Z,584
2017-11-29T13:47:05.924Z,568
2017-11-29T13:48:15.385Z,544
2017-11-29T13:49:25.404Z,528
2017-11-29T13:50:34.899Z,524
2017-11-29T13:51:44.941Z,504
2017-11-29T13:52:54.711Z,488
2017-11-29T13:54:04.720Z,476
2017-11-29T13:55:14.749Z,448
2017-11-29T13:56:24.756Z,428
2017-11-29T13:57:34.771Z,408
2017-11-29T13:58:44.503Z,392
2017-11-29T13:59:54.536Z,376
2017-11-29T14:01:04.552Z,356
2017-11-29T14:02:14.017Z,348
2017-11-29T14:03:24.024Z,344
2017-11-29T14:04:34.051Z,336
2017-11-29T14:05:44.057Z,320
2017-11-29T14:06:54.060Z,300
2017-11-29T14:08:04.061Z,284
2017-11-29T14:09:14.083Z,264
2017-11-29T14:10:24.091Z,252
2017-11-29T14:11:34.095Z,236
2017-11-29T14:12:44.109Z,220
2017-11-29T14:13:54.109Z,204
2017-11-29T14:15:04.116Z,192
2017-11-29T14:16:14.146Z,176
2017-11-29T14:17:24.159Z,168
2017-11-29T14:18:34.161Z,148
2017-11-29T14:19:44.184Z,140
2017-11-29T14:20:53.956Z,136
2017-11-29T14:22:03.699Z,124
2017-11-29T14:23:13.702Z,116
2017-11-29T14:24:23.436Z,108
2017-11-29T14:25:33.509Z,96
2017-11-29T14:26:43.505Z,92
2017-11-29T14:27:53.999Z,84
2017-11-29T14:29:04.025Z,76
2017-11-29T14:30:13.763Z,72
2017-11-29T14:31:23.497Z,64
2017-11-29T14:32:33.522Z,60
2017-11-29T14:33:47.449Z,56
2017-11-29T14:34:57.466Z,52
2017-11-29T14:36:07.492Z,44
2017-11-29T14:37:17.526Z,40
2017-11-29T14:38:27.260Z,36
2017-11-29T14:39:36.992Z,36
2017-11-29T14:40:46.742Z,28
2017-11-29T14:41:56.748Z,24
2017-11-29T14:43:06.762Z,24
2017-11-29T14:44:16.499Z,20
2017-11-29T14:45:26.267Z,16
2017-11-29T14:46:36.289Z,16
2017-11-29T14:47:46.048Z,12
2017-11-29T14:48:56.061Z,12
2017-11-29T14:50:05.801Z,12
2017-11-29T14:51:15.816Z,12
2017-11-29T14:52:25.563Z,8
2017-11-29T14:53:35.574Z,8
2017-11-29T14:54:45.579Z,8
2017-11-29T14:55:55.322Z,4
2017-11-29T14:57:05.164Z,4
2017-11-29T14:58:15.203Z,8
2017-11-29T14:59:25.208Z,4
2017-11-29T15:00:34.940Z,4
2017-11-29T15:01:44.683Z,4
2017-11-29T15:02:54.700Z,4
2017-11-29T15:04:04.431Z,4
2017-11-29T15:05:14.161Z,0
2017-11-29T15:06:24.162Z,0
2017-11-29T15:07:34.174Z,4
2017-11-29T15:08:44.078Z,4
2017-11-29T15:09:53.812Z,4
2017-11-29T15:11:03.816Z,4
2017-11-29T15:12:13.552Z,0
2017-11-29T15:13:23.553Z,0
2017-11-29T15:14:33.556Z,0
2017-11-29T15:15:43.576Z,0
2017-11-29T15:16:53.593Z,0
2017-11-29T15:18:03.322Z,0
2017-11-29T15:19:13.359Z,0
2017-11-29T15:20:23.378Z,0
2017-11-29T15:21:33.377Z,0
2017-11-29T15:22:43.112Z,0
2017-11-29T15:23:53.107Z,0
2017-11-29T15:25:03.113Z,0
2017-11-29T15:26:12.853Z,0
2017-11-29T15:27:22.889Z,0
2017-11-29T15:28:32.910Z,0
2017-11-29T15:29:42.923Z,0
2017-11-29T15:30:52.930Z,0
2017-11-29T15:32:02.661Z,0
2017-11-29T15:33:12.457Z,0
2017-11-29T15:34:22.466Z,0
2017-11-29T15:35:32.478Z,0
2017-11-29T15:36:42.508Z,0
2017-11-29T15:37:52.551Z,0
2017-11-29T15:39:02.029Z,0
2017-11-29T15:40:12.073Z,0
2017-11-29T15:41:22.079Z,0
2017-11-29T15:42:32.091Z,0
2017-11-29T15:43:42.092Z,0
2017-11-29T15:44:52.104Z,0
2017-11-29T15:46:02.141Z,0
2017-11-29T15:47:12.140Z,0
2017-11-29T15:48:22.159Z,0
2017-11-29T15:49:32.179Z,0
2017-11-29T15:50:42.176Z,0
2017-11-29T15:51:52.186Z,0
2017-11-29T15:53:02.199Z,0
2017-11-29T15:54:11.939Z,0
2017-11-29T15:55:21.414Z,0
2017-11-29T15:56:31.144Z,0
2017-11-29T15:57:40.608Z,0
2017-11-29T15:58:50.622Z,0
2017-11-29T16:00:00.633Z,0
2017-11-29T16:01:10.680Z,0
2017-11-29T16:02:20.697Z,0
2017-11-29T16:03:30.433Z,0
2017-11-29T16:04:40.434Z,0
2017-11-29T16:05:49.897Z,0
2017-11-29T16:06:59.905Z,0
2017-11-29T16:08:09.915Z,0
2017-11-29T16:09:19.930Z,0
2017-11-29T16:10:29.940Z,0
2017-11-29T16:11:39.943Z,0
2017-11-29T16:12:49.677Z,0
2017-11-29T16:13:59.428Z,0
2017-11-29T16:15:09.433Z,0
2017-11-29T16:16:19.438Z,0
2017-11-29T16:17:29.185Z,0
2017-11-29T16:18:39.189Z,0
2017-11-29T16:19:49.191Z,0
2017-11-29T16:20:58.953Z,0
2017-11-29T16:22:08.691Z,0
2017-11-29T16:23:18.182Z,0
2017-11-29T16:24:28.180Z,0
2017-11-29T16:25:37.926Z,0
2017-11-29T16:26:47.959Z,0
2017-11-29T16:27:57.978Z,0
2017-11-29T16:29:08.003Z,0
2017-11-29T16:30:17.772Z,0
2017-11-29T16:31:27.768Z,0
2017-11-29T16:32:37.501Z,0
2017-11-29T16:33:47.507Z,0
2017-11-29T16:34:57.523Z,0
2017-11-29T16:36:07.526Z,0